sensor_id;sensor_type;location;lat;lon;timestamp;P1;durP1;ratioP1;P2;durP2;ratioP2
60098;SDS011;62818;49.394;8.686;2023-04-24T00:00:05;1.47;;;1.30;;
60098;SDS011;62818;49.394;8.686;2023-04-24T00:01:06;2.22;;;1.35;;
60098;SDS011;62818;49.394;8.686;2023-04-24T00:02:07;2.13;;;1.50;;
60098;SDS011;62818;49.394;8.686;2023-04-24T00:03:09;4.20;;;1.38;;
60098;SDS011;62818;49.394;8.686;2023-04-24T00:04:09;3.73;;;1.33;;
60098;SDS011;62818;49.394;8.686;2023-04-24T00:05:10;3.35;;;1.30;;
60098;SDS011;62818;49.394;8.686;2023-04-24T00:06:11;2.58;;;1.45;;
60098;SDS011;62818;49.394;8.686;2023-04-24T00:07:12;1.67;;;1.30;;
60098;SDS011;62818;49.394;8.686;2023-04-24T00:08:13;1.43;;;1.30;;
60098;SDS011;62818;49.394;8.686;2023-04-24T00:09:13;3.57;;;1.57;;
60098;SDS011;62818;49.394;8.686;2023-04-24T00:10:14;3.83;;;1.30;;
60098;SDS011;62818;49.394;8.686;2023-04-24T00:11:15;1.43;;;1.33;;
60098;SDS011;62818;49.394;8.686;2023-04-24T00:12:15;1.67;;;1.33;;
60098;SDS011;62818;49.394;8.686;2023-04-24T00:13:16;1.67;;;1.30;;
60098;SDS011;62818;49.394;8.686;2023-04-24T00:14:16;2.60;;;1.40;;
60098;SDS011;62818;49.394;8.686;2023-04-24T00:15:17;3.10;;;1.50;;
60098;SDS011;62818;49.394;8.686;2023-04-24T00:16:17;4.53;;;1.70;;
60098;SDS011;62818;49.394;8.686;2023-04-24T00:17:18;4.10;;;1.53;;
60098;SDS011;62818;49.394;8.686;2023-04-24T00:18:21;3.28;;;1.30;;
60098;SDS011;62818;49.394;8.686;2023-04-24T00:20:22;4.03;;;1.90;;
60098;SDS011;62818;49.394;8.686;2023-04-24T00:21:23;4.77;;;1.50;;
60098;SDS011;62818;49.394;8.686;2023-04-24T00:22:25;2.75;;;1.52;;
60098;SDS011;62818;49.394;8.686;2023-04-24T00:23:27;3.67;;;1.55;;
60098;SDS011;62818;49.394;8.686;2023-04-24T00:24:27;2.50;;;1.50;;
60098;SDS011;62818;49.394;8.686;2023-04-24T00:25:28;3.53;;;1.80;;
60098;SDS011;62818;49.394;8.686;2023-04-24T00:26:28;1.50;;;1.40;;
60098;SDS011;62818;49.394;8.686;2023-04-24T00:27:29;3.13;;;1.57;;
60098;SDS011;62818;49.394;8.686;2023-04-24T00:28:30;3.33;;;1.50;;
60098;SDS011;62818;49.394;8.686;2023-04-24T00:29:30;2.63;;;1.43;;
60098;SDS011;62818;49.394;8.686;2023-04-24T00:30:31;1.97;;;1.40;;
60098;SDS011;62818;49.394;8.686;2023-04-24T00:31:31;2.57;;;1.57;;
60098;SDS011;62818;49.394;8.686;2023-04-24T00:32:34;2.13;;;1.23;;
60098;SDS011;62818;49.394;8.686;2023-04-24T00:33:35;2.30;;;1.60;;
60098;SDS011;62818;49.394;8.686;2023-04-24T00:34:36;3.35;;;1.60;;
60098;SDS011;62818;49.394;8.686;2023-04-24T00:35:36;3.90;;;1.70;;
60098;SDS011;62818;49.394;8.686;2023-04-24T00:36:37;1.37;;;1.20;;
60098;SDS011;62818;49.394;8.686;2023-04-24T00:37:37;3.07;;;1.70;;
60098;SDS011;62818;49.394;8.686;2023-04-24T00:38:38;2.93;;;1.60;;
60098;SDS011;62818;49.394;8.686;2023-04-24T00:39:38;3.57;;;1.63;;
60098;SDS011;62818;49.394;8.686;2023-04-24T00:40:39;1.83;;;1.37;;
60098;SDS011;62818;49.394;8.686;2023-04-24T00:41:39;4.70;;;1.60;;
60098;SDS011;62818;49.394;8.686;2023-04-24T00:42:40;3.90;;;1.67;;
60098;SDS011;62818;49.394;8.686;2023-04-24T00:43:41;4.20;;;1.53;;
60098;SDS011;62818;49.394;8.686;2023-04-24T00:44:41;5.87;;;1.67;;
60098;SDS011;62818;49.394;8.686;2023-04-24T00:45:42;3.80;;;1.50;;
60098;SDS011;62818;49.394;8.686;2023-04-24T00:46:43;2.33;;;1.60;;
60098;SDS011;62818;49.394;8.686;2023-04-24T00:47:44;4.57;;;1.37;;
60098;SDS011;62818;49.394;8.686;2023-04-24T00:48:45;10.88;;;1.85;;
60098;SDS011;62818;49.394;8.686;2023-04-24T00:49:46;3.63;;;1.55;;
60098;SDS011;62818;49.394;8.686;2023-04-24T00:50:47;2.47;;;1.40;;
60098;SDS011;62818;49.394;8.686;2023-04-24T00:51:47;2.47;;;1.60;;
60098;SDS011;62818;49.394;8.686;2023-04-24T00:53:49;3.30;;;1.50;;
60098;SDS011;62818;49.394;8.686;2023-04-24T00:54:51;1.92;;;1.25;;
60098;SDS011;62818;49.394;8.686;2023-04-24T00:55:51;1.80;;;1.50;;
60098;SDS011;62818;49.394;8.686;2023-04-24T00:56:52;3.80;;;1.50;;
60098;SDS011;62818;49.394;8.686;2023-04-24T00:57:53;4.23;;;1.60;;
60098;SDS011;62818;49.394;8.686;2023-04-24T00:58:53;4.40;;;1.50;;
60098;SDS011;62818;49.394;8.686;2023-04-24T00:59:54;3.40;;;1.50;;
60098;SDS011;62818;49.394;8.686;2023-04-24T01:00:55;4.80;;;1.90;;
60098;SDS011;62818;49.394;8.686;2023-04-24T01:01:57;4.22;;;1.30;;
60098;SDS011;62818;49.394;8.686;2023-04-24T01:02:59;2.90;;;2.00;;
60098;SDS011;62818;49.394;8.686;2023-04-24T01:04:04;3.08;;;2.10;;
60098;SDS011;62818;49.394;8.686;2023-04-24T01:05:09;3.40;;;1.77;;
60098;SDS011;62818;49.394;8.686;2023-04-24T01:06:12;3.22;;;1.58;;
60098;SDS011;62818;49.394;8.686;2023-04-24T01:07:14;3.65;;;1.88;;
60098;SDS011;62818;49.394;8.686;2023-04-24T01:08:14;2.47;;;1.73;;
60098;SDS011;62818;49.394;8.686;2023-04-24T01:09:15;3.07;;;1.50;;
60098;SDS011;62818;49.394;8.686;2023-04-24T01:10:18;4.43;;;1.98;;
60098;SDS011;62818;49.394;8.686;2023-04-24T01:11:20;5.10;;;2.70;;
60098;SDS011;62818;49.394;8.686;2023-04-24T01:12:21;4.88;;;1.80;;
60098;SDS011;62818;49.394;8.686;2023-04-24T01:13:22;3.57;;;1.67;;
60098;SDS011;62818;49.394;8.686;2023-04-24T01:14:23;2.80;;;1.80;;
60098;SDS011;62818;49.394;8.686;2023-04-24T01:15:23;5.20;;;2.50;;
60098;SDS011;62818;49.394;8.686;2023-04-24T01:16:24;4.03;;;1.80;;
60098;SDS011;62818;49.394;8.686;2023-04-24T01:17:24;3.13;;;1.57;;
60098;SDS011;62818;49.394;8.686;2023-04-24T01:18:25;4.10;;;1.50;;
60098;SDS011;62818;49.394;8.686;2023-04-24T01:19:27;2.05;;;1.50;;
60098;SDS011;62818;49.394;8.686;2023-04-24T01:20:27;3.92;;;1.45;;
60098;SDS011;62818;49.394;8.686;2023-04-24T01:21:30;3.28;;;1.50;;
60098;SDS011;62818;49.394;8.686;2023-04-24T01:22:34;3.38;;;1.50;;
60098;SDS011;62818;49.394;8.686;2023-04-24T01:23:35;2.58;;;1.50;;
60098;SDS011;62818;49.394;8.686;2023-04-24T01:24:35;2.67;;;1.70;;
60098;SDS011;62818;49.394;8.686;2023-04-24T01:25:36;6.97;;;1.85;;
60098;SDS011;62818;49.394;8.686;2023-04-24T01:26:37;3.90;;;1.60;;
60098;SDS011;62818;49.394;8.686;2023-04-24T01:27:37;4.40;;;1.83;;
60098;SDS011;62818;49.394;8.686;2023-04-24T01:28:38;2.80;;;1.80;;
60098;SDS011;62818;49.394;8.686;2023-04-24T01:29:39;2.55;;;1.58;;
60098;SDS011;62818;49.394;8.686;2023-04-24T01:30:40;4.13;;;1.80;;
60098;SDS011;62818;49.394;8.686;2023-04-24T01:31:41;3.63;;;1.63;;
60098;SDS011;62818;49.394;8.686;2023-04-24T01:32:42;2.05;;;1.40;;
60098;SDS011;62818;49.394;8.686;2023-04-24T01:33:44;1.98;;;1.52;;
60098;SDS011;62818;49.394;8.686;2023-04-24T01:34:45;2.90;;;1.40;;
60098;SDS011;62818;49.394;8.686;2023-04-24T01:35:47;3.05;;;1.48;;
60098;SDS011;62818;49.394;8.686;2023-04-24T01:37:49;3.45;;;1.60;;
60098;SDS011;62818;49.394;8.686;2023-04-24T01:38:49;4.00;;;1.60;;
60098;SDS011;62818;49.394;8.686;2023-04-24T01:39:50;3.37;;;1.40;;
60098;SDS011;62818;49.394;8.686;2023-04-24T01:40:50;3.93;;;1.30;;
60098;SDS011;62818;49.394;8.686;2023-04-24T01:41:54;2.35;;;1.42;;
60098;SDS011;62818;49.394;8.686;2023-04-24T01:43:57;2.30;;;1.38;;
60098;SDS011;62818;49.394;8.686;2023-04-24T01:44:59;2.85;;;1.50;;
60098;SDS011;62818;49.394;8.686;2023-04-24T01:46:01;4.30;;;1.40;;
60098;SDS011;62818;49.394;8.686;2023-04-24T01:47:02;3.37;;;1.60;;
60098;SDS011;62818;49.394;8.686;2023-04-24T01:48:02;3.13;;;1.60;;
60098;SDS011;62818;49.394;8.686;2023-04-24T01:49:03;3.23;;;1.57;;
60098;SDS011;62818;49.394;8.686;2023-04-24T01:50:04;5.70;;;1.63;;
60098;SDS011;62818;49.394;8.686;2023-04-24T01:51:05;5.18;;;1.40;;
60098;SDS011;62818;49.394;8.686;2023-04-24T01:52:06;4.27;;;1.47;;
60098;SDS011;62818;49.394;8.686;2023-04-24T01:53:07;3.78;;;2.00;;
60098;SDS011;62818;49.394;8.686;2023-04-24T01:54:08;3.28;;;1.38;;
60098;SDS011;62818;49.394;8.686;2023-04-24T01:55:09;2.40;;;1.40;;
60098;SDS011;62818;49.394;8.686;2023-04-24T01:57:11;2.00;;;1.48;;
60098;SDS011;62818;49.394;8.686;2023-04-24T01:58:12;1.77;;;1.40;;
60098;SDS011;62818;49.394;8.686;2023-04-24T01:59:12;4.83;;;1.60;;
60098;SDS011;62818;49.394;8.686;2023-04-24T02:00:14;2.85;;;1.63;;
60098;SDS011;62818;49.394;8.686;2023-04-24T02:01:19;1.93;;;1.40;;
60098;SDS011;62818;49.394;8.686;2023-04-24T02:02:20;3.53;;;1.30;;
60098;SDS011;62818;49.394;8.686;2023-04-24T02:03:21;2.80;;;1.30;;
60098;SDS011;62818;49.394;8.686;2023-04-24T02:04:21;4.17;;;1.40;;
60098;SDS011;62818;49.394;8.686;2023-04-24T02:05:22;3.50;;;1.60;;
60098;SDS011;62818;49.394;8.686;2023-04-24T02:06:22;4.43;;;1.87;;
60098;SDS011;62818;49.394;8.686;2023-04-24T02:07:23;2.30;;;1.60;;
60098;SDS011;62818;49.394;8.686;2023-04-24T02:08:24;2.43;;;1.40;;
60098;SDS011;62818;49.394;8.686;2023-04-24T02:09:25;2.53;;;1.63;;
60098;SDS011;62818;49.394;8.686;2023-04-24T02:10:25;2.13;;;1.40;;
60098;SDS011;62818;49.394;8.686;2023-04-24T02:11:29;2.77;;;1.50;;
60098;SDS011;62818;49.394;8.686;2023-04-24T02:12:29;4.32;;;1.50;;
60098;SDS011;62818;49.394;8.686;2023-04-24T02:13:30;3.30;;;1.30;;
60098;SDS011;62818;49.394;8.686;2023-04-24T02:14:30;3.87;;;1.50;;
60098;SDS011;62818;49.394;8.686;2023-04-24T02:15:31;2.10;;;1.40;;
60098;SDS011;62818;49.394;8.686;2023-04-24T02:16:31;4.90;;;1.50;;
60098;SDS011;62818;49.394;8.686;2023-04-24T02:17:32;3.63;;;1.80;;
60098;SDS011;62818;49.394;8.686;2023-04-24T02:18:33;2.70;;;1.50;;
60098;SDS011;62818;49.394;8.686;2023-04-24T02:19:33;3.03;;;1.40;;
60098;SDS011;62818;49.394;8.686;2023-04-24T02:20:34;3.23;;;1.47;;
60098;SDS011;62818;49.394;8.686;2023-04-24T02:21:35;4.78;;;1.55;;
60098;SDS011;62818;49.394;8.686;2023-04-24T02:22:35;3.90;;;1.60;;
60098;SDS011;62818;49.394;8.686;2023-04-24T02:23:36;2.73;;;2.00;;
60098;SDS011;62818;49.394;8.686;2023-04-24T02:24:37;3.40;;;1.60;;
60098;SDS011;62818;49.394;8.686;2023-04-24T02:26:38;2.72;;;1.73;;
60098;SDS011;62818;49.394;8.686;2023-04-24T02:27:39;4.10;;;1.90;;
60098;SDS011;62818;49.394;8.686;2023-04-24T02:28:39;4.07;;;1.60;;
60098;SDS011;62818;49.394;8.686;2023-04-24T02:29:40;4.57;;;1.43;;
60098;SDS011;62818;49.394;8.686;2023-04-24T02:30:40;5.13;;;1.90;;
60098;SDS011;62818;49.394;8.686;2023-04-24T02:31:41;3.17;;;1.77;;
60098;SDS011;62818;49.394;8.686;2023-04-24T02:32:41;6.60;;;1.60;;
60098;SDS011;62818;49.394;8.686;2023-04-24T02:33:42;2.37;;;1.50;;
60098;SDS011;62818;49.394;8.686;2023-04-24T02:34:43;3.53;;;1.43;;
60098;SDS011;62818;49.394;8.686;2023-04-24T02:35:43;2.53;;;1.70;;
60098;SDS011;62818;49.394;8.686;2023-04-24T02:36:44;2.67;;;1.43;;
60098;SDS011;62818;49.394;8.686;2023-04-24T02:37:44;2.87;;;1.40;;
60098;SDS011;62818;49.394;8.686;2023-04-24T02:38:44;2.03;;;1.70;;
60098;SDS011;62818;49.394;8.686;2023-04-24T02:39:45;4.40;;;1.70;;
60098;SDS011;62818;49.394;8.686;2023-04-24T02:40:45;4.20;;;1.57;;
60098;SDS011;62818;49.394;8.686;2023-04-24T02:41:46;1.90;;;1.47;;
60098;SDS011;62818;49.394;8.686;2023-04-24T02:42:46;4.43;;;1.83;;
60098;SDS011;62818;49.394;8.686;2023-04-24T02:43:47;6.93;;;1.67;;
60098;SDS011;62818;49.394;8.686;2023-04-24T02:44:47;3.53;;;1.67;;
60098;SDS011;62818;49.394;8.686;2023-04-24T02:45:48;3.00;;;1.47;;
60098;SDS011;62818;49.394;8.686;2023-04-24T02:46:48;7.77;;;1.90;;
60098;SDS011;62818;49.394;8.686;2023-04-24T02:47:49;3.70;;;1.60;;
60098;SDS011;62818;49.394;8.686;2023-04-24T02:48:49;2.67;;;1.53;;
60098;SDS011;62818;49.394;8.686;2023-04-24T02:49:50;1.60;;;1.50;;
60098;SDS011;62818;49.394;8.686;2023-04-24T02:50:50;3.23;;;1.57;;
60098;SDS011;62818;49.394;8.686;2023-04-24T02:51:51;1.93;;;1.70;;
60098;SDS011;62818;49.394;8.686;2023-04-24T02:52:51;4.20;;;1.57;;
60098;SDS011;62818;49.394;8.686;2023-04-24T02:53:52;2.27;;;1.53;;
60098;SDS011;62818;49.394;8.686;2023-04-24T02:54:53;2.27;;;1.50;;
60098;SDS011;62818;49.394;8.686;2023-04-24T02:55:54;4.43;;;1.55;;
60098;SDS011;62818;49.394;8.686;2023-04-24T02:56:54;4.53;;;1.73;;
60098;SDS011;62818;49.394;8.686;2023-04-24T02:57:55;2.60;;;1.40;;
60098;SDS011;62818;49.394;8.686;2023-04-24T02:58:55;5.13;;;1.67;;
60098;SDS011;62818;49.394;8.686;2023-04-24T02:59:56;5.03;;;2.10;;
60098;SDS011;62818;49.394;8.686;2023-04-24T03:00:56;4.90;;;1.60;;
60098;SDS011;62818;49.394;8.686;2023-04-24T03:01:57;3.47;;;1.87;;
60098;SDS011;62818;49.394;8.686;2023-04-24T03:02:58;4.70;;;1.70;;
60098;SDS011;62818;49.394;8.686;2023-04-24T03:03:58;2.37;;;1.60;;
60098;SDS011;62818;49.394;8.686;2023-04-24T03:04:59;6.07;;;1.67;;
60098;SDS011;62818;49.394;8.686;2023-04-24T03:06:00;2.60;;;1.60;;
60098;SDS011;62818;49.394;8.686;2023-04-24T03:07:00;5.50;;;1.93;;
60098;SDS011;62818;49.394;8.686;2023-04-24T03:08:01;7.37;;;2.20;;
60098;SDS011;62818;49.394;8.686;2023-04-24T03:09:01;3.80;;;1.80;;
60098;SDS011;62818;49.394;8.686;2023-04-24T03:10:03;4.97;;;2.10;;
60098;SDS011;62818;49.394;8.686;2023-04-24T03:11:05;3.83;;;1.50;;
60098;SDS011;62818;49.394;8.686;2023-04-24T03:12:06;2.30;;;1.70;;
60098;SDS011;62818;49.394;8.686;2023-04-24T03:13:06;3.80;;;1.73;;
60098;SDS011;62818;49.394;8.686;2023-04-24T03:14:07;2.83;;;1.37;;
60098;SDS011;62818;49.394;8.686;2023-04-24T03:15:07;4.03;;;2.30;;
60098;SDS011;62818;49.394;8.686;2023-04-24T03:16:09;3.45;;;1.83;;
60098;SDS011;62818;49.394;8.686;2023-04-24T03:17:09;5.43;;;1.93;;
60098;SDS011;62818;49.394;8.686;2023-04-24T03:18:10;4.97;;;2.10;;
60098;SDS011;62818;49.394;8.686;2023-04-24T03:19:10;2.43;;;1.90;;
60098;SDS011;62818;49.394;8.686;2023-04-24T03:20:11;2.83;;;1.90;;
60098;SDS011;62818;49.394;8.686;2023-04-24T03:22:13;5.15;;;2.05;;
60098;SDS011;62818;49.394;8.686;2023-04-24T03:23:13;6.50;;;2.53;;
60098;SDS011;62818;49.394;8.686;2023-04-24T03:24:14;4.33;;;2.23;;
60098;SDS011;62818;49.394;8.686;2023-04-24T03:25:14;5.50;;;2.27;;
60098;SDS011;62818;49.394;8.686;2023-04-24T03:26:15;2.43;;;1.90;;
60098;SDS011;62818;49.394;8.686;2023-04-24T03:27:15;2.80;;;1.93;;
60098;SDS011;62818;49.394;8.686;2023-04-24T03:28:16;4.60;;;2.80;;
60098;SDS011;62818;49.394;8.686;2023-04-24T03:29:16;3.00;;;2.20;;
60098;SDS011;62818;49.394;8.686;2023-04-24T03:30:17;2.57;;;2.10;;
60098;SDS011;62818;49.394;8.686;2023-04-24T03:31:17;3.73;;;2.33;;
60098;SDS011;62818;49.394;8.686;2023-04-24T03:32:19;3.28;;;2.35;;
60098;SDS011;62818;49.394;8.686;2023-04-24T03:33:19;2.80;;;1.77;;
60098;SDS011;62818;49.394;8.686;2023-04-24T03:34:20;3.23;;;2.00;;
60098;SDS011;62818;49.394;8.686;2023-04-24T03:35:20;5.77;;;2.40;;
60098;SDS011;62818;49.394;8.686;2023-04-24T03:36:21;6.63;;;2.38;;
60098;SDS011;62818;49.394;8.686;2023-04-24T03:37:22;4.57;;;2.67;;
60098;SDS011;62818;49.394;8.686;2023-04-24T03:38:22;3.93;;;2.37;;
60098;SDS011;62818;49.394;8.686;2023-04-24T03:39:23;2.70;;;1.97;;
60098;SDS011;62818;49.394;8.686;2023-04-24T03:40:25;3.58;;;2.20;;
60098;SDS011;62818;49.394;8.686;2023-04-24T03:41:25;3.73;;;2.10;;
60098;SDS011;62818;49.394;8.686;2023-04-24T03:42:26;2.43;;;2.00;;
60098;SDS011;62818;49.394;8.686;2023-04-24T03:43:26;5.93;;;2.30;;
60098;SDS011;62818;49.394;8.686;2023-04-24T03:44:27;2.77;;;1.93;;
60098;SDS011;62818;49.394;8.686;2023-04-24T03:45:27;4.50;;;2.37;;
60098;SDS011;62818;49.394;8.686;2023-04-24T03:46:28;3.17;;;2.20;;
60098;SDS011;62818;49.394;8.686;2023-04-24T03:47:28;3.33;;;2.20;;
60098;SDS011;62818;49.394;8.686;2023-04-24T03:48:29;3.00;;;2.00;;
60098;SDS011;62818;49.394;8.686;2023-04-24T03:49:29;3.80;;;2.50;;
60098;SDS011;62818;49.394;8.686;2023-04-24T03:50:30;3.93;;;2.20;;
60098;SDS011;62818;49.394;8.686;2023-04-24T03:51:30;6.63;;;2.30;;
60098;SDS011;62818;49.394;8.686;2023-04-24T03:52:31;4.93;;;2.07;;
60098;SDS011;62818;49.394;8.686;2023-04-24T03:53:31;5.00;;;2.47;;
60098;SDS011;62818;49.394;8.686;2023-04-24T03:54:32;4.60;;;2.30;;
60098;SDS011;62818;49.394;8.686;2023-04-24T03:55:32;6.00;;;2.40;;
60098;SDS011;62818;49.394;8.686;2023-04-24T03:56:33;4.13;;;2.63;;
60098;SDS011;62818;49.394;8.686;2023-04-24T03:57:33;2.50;;;2.20;;
60098;SDS011;62818;49.394;8.686;2023-04-24T03:58:34;3.63;;;2.40;;
60098;SDS011;62818;49.394;8.686;2023-04-24T03:59:35;3.97;;;2.20;;
60098;SDS011;62818;49.394;8.686;2023-04-24T04:00:35;2.37;;;2.10;;
60098;SDS011;62818;49.394;8.686;2023-04-24T04:02:37;3.75;;;2.20;;
60098;SDS011;62818;49.394;8.686;2023-04-24T04:03:38;4.70;;;2.17;;
60098;SDS011;62818;49.394;8.686;2023-04-24T04:04:38;2.77;;;2.30;;
60098;SDS011;62818;49.394;8.686;2023-04-24T04:05:39;5.03;;;2.50;;
60098;SDS011;62818;49.394;8.686;2023-04-24T04:06:40;2.80;;;2.20;;
60098;SDS011;62818;49.394;8.686;2023-04-24T04:07:40;3.87;;;2.03;;
60098;SDS011;62818;49.394;8.686;2023-04-24T04:08:41;2.97;;;2.33;;
60098;SDS011;62818;49.394;8.686;2023-04-24T04:09:41;6.43;;;3.27;;
60098;SDS011;62818;49.394;8.686;2023-04-24T04:10:42;4.03;;;2.33;;
60098;SDS011;62818;49.394;8.686;2023-04-24T04:11:42;3.53;;;3.23;;
60098;SDS011;62818;49.394;8.686;2023-04-24T04:12:43;4.10;;;3.57;;
60098;SDS011;62818;49.394;8.686;2023-04-24T04:13:43;6.03;;;4.10;;
60098;SDS011;62818;49.394;8.686;2023-04-24T04:14:45;5.30;;;3.30;;
60098;SDS011;62818;49.394;8.686;2023-04-24T04:15:46;3.13;;;2.83;;
60098;SDS011;62818;49.394;8.686;2023-04-24T04:16:46;3.03;;;2.27;;
60098;SDS011;62818;49.394;8.686;2023-04-24T04:17:47;2.97;;;2.00;;
60098;SDS011;62818;49.394;8.686;2023-04-24T04:18:47;5.73;;;2.27;;
60098;SDS011;62818;49.394;8.686;2023-04-24T04:19:48;2.33;;;2.10;;
60098;SDS011;62818;49.394;8.686;2023-04-24T04:20:49;3.13;;;2.17;;
60098;SDS011;62818;49.394;8.686;2023-04-24T04:21:49;4.47;;;2.47;;
60098;SDS011;62818;49.394;8.686;2023-04-24T04:22:55;3.20;;;2.28;;
60098;SDS011;62818;49.394;8.686;2023-04-24T04:23:56;2.77;;;2.10;;
60098;SDS011;62818;49.394;8.686;2023-04-24T04:24:56;2.40;;;2.20;;
60098;SDS011;62818;49.394;8.686;2023-04-24T04:25:57;2.00;;;1.90;;
60098;SDS011;62818;49.394;8.686;2023-04-24T04:26:58;3.47;;;1.90;;
60098;SDS011;62818;49.394;8.686;2023-04-24T04:27:59;4.28;;;2.10;;
60098;SDS011;62818;49.394;8.686;2023-04-24T04:28:59;3.03;;;2.27;;
60098;SDS011;62818;49.394;8.686;2023-04-24T04:30:03;3.58;;;2.92;;
60098;SDS011;62818;49.394;8.686;2023-04-24T04:31:05;3.55;;;3.03;;
60098;SDS011;62818;49.394;8.686;2023-04-24T04:32:07;4.45;;;2.58;;
60098;SDS011;62818;49.394;8.686;2023-04-24T04:33:08;3.50;;;2.90;;
60098;SDS011;62818;49.394;8.686;2023-04-24T04:34:08;3.13;;;2.60;;
60098;SDS011;62818;49.394;8.686;2023-04-24T04:35:09;3.17;;;2.40;;
60098;SDS011;62818;49.394;8.686;2023-04-24T04:36:09;4.00;;;2.40;;
60098;SDS011;62818;49.394;8.686;2023-04-24T04:37:10;2.80;;;2.20;;
60098;SDS011;62818;49.394;8.686;2023-04-24T04:38:12;3.75;;;2.40;;
60098;SDS011;62818;49.394;8.686;2023-04-24T04:39:12;2.63;;;2.30;;
60098;SDS011;62818;49.394;8.686;2023-04-24T04:40:15;7.07;;;2.47;;
60098;SDS011;62818;49.394;8.686;2023-04-24T04:41:15;3.13;;;2.30;;
60098;SDS011;62818;49.394;8.686;2023-04-24T04:42:18;2.25;;;2.05;;
60098;SDS011;62818;49.394;8.686;2023-04-24T04:43:18;4.72;;;2.22;;
60098;SDS011;62818;49.394;8.686;2023-04-24T04:44:19;4.50;;;2.33;;
60098;SDS011;62818;49.394;8.686;2023-04-24T04:45:19;3.00;;;2.70;;
60098;SDS011;62818;49.394;8.686;2023-04-24T04:46:20;5.00;;;2.83;;
60098;SDS011;62818;49.394;8.686;2023-04-24T04:47:21;4.63;;;3.78;;
60098;SDS011;62818;49.394;8.686;2023-04-24T04:48:23;4.78;;;2.50;;
60098;SDS011;62818;49.394;8.686;2023-04-24T04:49:23;5.43;;;2.80;;
60098;SDS011;62818;49.394;8.686;2023-04-24T04:50:24;4.27;;;3.20;;
60098;SDS011;62818;49.394;8.686;2023-04-24T04:51:24;2.87;;;2.47;;
60098;SDS011;62818;49.394;8.686;2023-04-24T04:52:25;2.50;;;2.30;;
60098;SDS011;62818;49.394;8.686;2023-04-24T04:53:26;5.07;;;2.22;;
60098;SDS011;62818;49.394;8.686;2023-04-24T04:54:27;3.87;;;2.70;;
60098;SDS011;62818;49.394;8.686;2023-04-24T04:55:27;5.43;;;2.60;;
60098;SDS011;62818;49.394;8.686;2023-04-24T04:56:27;4.63;;;4.13;;
60098;SDS011;62818;49.394;8.686;2023-04-24T04:57:28;3.13;;;2.50;;
60098;SDS011;62818;49.394;8.686;2023-04-24T04:58:28;3.67;;;3.10;;
60098;SDS011;62818;49.394;8.686;2023-04-24T04:59:29;4.27;;;2.87;;
60098;SDS011;62818;49.394;8.686;2023-04-24T05:00:30;4.87;;;2.67;;
60098;SDS011;62818;49.394;8.686;2023-04-24T05:01:35;3.25;;;2.67;;
60098;SDS011;62818;49.394;8.686;2023-04-24T05:02:36;3.47;;;2.72;;
60098;SDS011;62818;49.394;8.686;2023-04-24T05:03:37;6.00;;;2.57;;
60098;SDS011;62818;49.394;8.686;2023-04-24T05:04:37;2.70;;;2.50;;
60098;SDS011;62818;49.394;8.686;2023-04-24T05:05:38;6.00;;;2.50;;
60098;SDS011;62818;49.394;8.686;2023-04-24T05:06:40;3.45;;;2.85;;
60098;SDS011;62818;49.394;8.686;2023-04-24T05:07:41;4.50;;;2.73;;
60098;SDS011;62818;49.394;8.686;2023-04-24T05:08:41;4.17;;;2.80;;
60098;SDS011;62818;49.394;8.686;2023-04-24T05:09:42;3.83;;;2.60;;
60098;SDS011;62818;49.394;8.686;2023-04-24T05:10:42;3.23;;;2.93;;
60098;SDS011;62818;49.394;8.686;2023-04-24T05:11:43;6.03;;;3.00;;
60098;SDS011;62818;49.394;8.686;2023-04-24T05:12:43;5.03;;;2.90;;
60098;SDS011;62818;49.394;8.686;2023-04-24T05:13:44;7.50;;;2.60;;
60098;SDS011;62818;49.394;8.686;2023-04-24T05:14:44;3.30;;;3.00;;
60098;SDS011;62818;49.394;8.686;2023-04-24T05:15:45;6.33;;;3.17;;
60098;SDS011;62818;49.394;8.686;2023-04-24T05:16:45;4.03;;;2.73;;
60098;SDS011;62818;49.394;8.686;2023-04-24T05:17:46;9.93;;;3.23;;
60098;SDS011;62818;49.394;8.686;2023-04-24T05:18:46;3.03;;;2.83;;
60098;SDS011;62818;49.394;8.686;2023-04-24T05:19:47;3.67;;;2.43;;
60098;SDS011;62818;49.394;8.686;2023-04-24T05:20:48;2.97;;;2.65;;
60098;SDS011;62818;49.394;8.686;2023-04-24T05:21:48;4.80;;;2.97;;
60098;SDS011;62818;49.394;8.686;2023-04-24T05:22:49;5.40;;;3.13;;
60098;SDS011;62818;49.394;8.686;2023-04-24T05:23:49;4.13;;;3.00;;
60098;SDS011;62818;49.394;8.686;2023-04-24T05:24:50;5.67;;;3.50;;
60098;SDS011;62818;49.394;8.686;2023-04-24T05:25:50;4.30;;;3.07;;
60098;SDS011;62818;49.394;8.686;2023-04-24T05:26:51;5.77;;;3.30;;
60098;SDS011;62818;49.394;8.686;2023-04-24T05:27:51;3.73;;;2.90;;
60098;SDS011;62818;49.394;8.686;2023-04-24T05:28:53;4.25;;;3.08;;
60098;SDS011;62818;49.394;8.686;2023-04-24T05:29:54;3.07;;;2.80;;
60098;SDS011;62818;49.394;8.686;2023-04-24T05:30:54;2.88;;;2.65;;
60098;SDS011;62818;49.394;8.686;2023-04-24T05:31:56;7.38;;;2.78;;
60098;SDS011;62818;49.394;8.686;2023-04-24T05:32:57;3.25;;;2.95;;
60098;SDS011;62818;49.394;8.686;2023-04-24T05:33:58;3.90;;;3.33;;
60098;SDS011;62818;49.394;8.686;2023-04-24T05:34:58;3.73;;;2.93;;
60098;SDS011;62818;49.394;8.686;2023-04-24T05:35:59;3.30;;;2.93;;
60098;SDS011;62818;49.394;8.686;2023-04-24T05:36:59;4.27;;;2.93;;
60098;SDS011;62818;49.394;8.686;2023-04-24T05:38:00;3.30;;;3.00;;
60098;SDS011;62818;49.394;8.686;2023-04-24T05:39:01;4.60;;;2.88;;
60098;SDS011;62818;49.394;8.686;2023-04-24T05:40:02;4.03;;;3.40;;
60098;SDS011;62818;49.394;8.686;2023-04-24T05:41:05;3.67;;;3.30;;
60098;SDS011;62818;49.394;8.686;2023-04-24T05:42:05;6.73;;;3.27;;
60098;SDS011;62818;49.394;8.686;2023-04-24T05:43:06;4.03;;;3.60;;
60098;SDS011;62818;49.394;8.686;2023-04-24T05:44:06;4.93;;;3.37;;
60098;SDS011;62818;49.394;8.686;2023-04-24T05:45:07;7.53;;;3.73;;
60098;SDS011;62818;49.394;8.686;2023-04-24T05:46:08;9.60;;;3.30;;
60098;SDS011;62818;49.394;8.686;2023-04-24T05:47:08;7.80;;;3.93;;
60098;SDS011;62818;49.394;8.686;2023-04-24T05:48:09;8.00;;;3.80;;
60098;SDS011;62818;49.394;8.686;2023-04-24T05:49:09;5.50;;;3.30;;
60098;SDS011;62818;49.394;8.686;2023-04-24T05:50:10;6.10;;;3.40;;
60098;SDS011;62818;49.394;8.686;2023-04-24T05:51:12;4.28;;;3.67;;
60098;SDS011;62818;49.394;8.686;2023-04-24T05:52:12;6.25;;;3.58;;
60098;SDS011;62818;49.394;8.686;2023-04-24T05:53:13;6.32;;;3.38;;
60098;SDS011;62818;49.394;8.686;2023-04-24T05:54:14;4.60;;;3.77;;
60098;SDS011;62818;49.394;8.686;2023-04-24T05:55:14;5.80;;;3.57;;
60098;SDS011;62818;49.394;8.686;2023-04-24T05:56:18;5.03;;;3.70;;
60098;SDS011;62818;49.394;8.686;2023-04-24T05:57:19;4.40;;;3.85;;
60098;SDS011;62818;49.394;8.686;2023-04-24T05:58:19;5.53;;;3.83;;
60098;SDS011;62818;49.394;8.686;2023-04-24T05:59:20;6.07;;;4.07;;
60098;SDS011;62818;49.394;8.686;2023-04-24T06:00:21;6.45;;;4.47;;
60098;SDS011;62818;49.394;8.686;2023-04-24T06:01:21;4.77;;;4.27;;
60098;SDS011;62818;49.394;8.686;2023-04-24T06:02:22;5.07;;;4.30;;
60098;SDS011;62818;49.394;8.686;2023-04-24T06:03:22;5.57;;;4.20;;
60098;SDS011;62818;49.394;8.686;2023-04-24T06:04:23;6.53;;;4.20;;
60098;SDS011;62818;49.394;8.686;2023-04-24T06:05:23;6.63;;;3.87;;
60098;SDS011;62818;49.394;8.686;2023-04-24T06:06:24;4.50;;;4.10;;
60098;SDS011;62818;49.394;8.686;2023-04-24T06:07:25;5.03;;;4.30;;
60098;SDS011;62818;49.394;8.686;2023-04-24T06:08:26;8.75;;;4.22;;
60098;SDS011;62818;49.394;8.686;2023-04-24T06:09:26;5.03;;;3.90;;
60098;SDS011;62818;49.394;8.686;2023-04-24T06:10:27;4.40;;;4.00;;
60098;SDS011;62818;49.394;8.686;2023-04-24T06:11:28;4.47;;;4.00;;
60098;SDS011;62818;49.394;8.686;2023-04-24T06:12:28;6.53;;;4.30;;
60098;SDS011;62818;49.394;8.686;2023-04-24T06:13:29;7.10;;;4.80;;
60098;SDS011;62818;49.394;8.686;2023-04-24T06:14:29;5.20;;;4.53;;